createdAt,value
2023-05-19T00:00:18.227Z,10.04
2023-05-19T00:01:19.376Z,10.07
2023-05-19T00:02:19.622Z,10.07
2023-05-19T00:03:19.827Z,10.06
2023-05-19T00:04:18.880Z,10.04
2023-05-19T00:05:18.118Z,10.01
2023-05-19T00:06:18.330Z,9.99
2023-05-19T00:07:19.445Z,9.98
2023-05-19T00:08:19.657Z,9.95
2023-05-19T00:09:18.813Z,9.92
2023-05-19T00:10:17.954Z,9.91
2023-05-19T00:11:18.122Z,9.91
2023-05-19T00:12:19.275Z,9.92
2023-05-19T00:13:18.486Z,9.92
2023-05-19T00:14:20.348Z,9.92
2023-05-19T00:15:17.838Z,9.91
2023-05-19T00:16:18.034Z,9.89
2023-05-19T00:17:19.182Z,9.93
2023-05-19T00:18:19.370Z,9.91
2023-05-19T00:19:18.616Z,9.89
2023-05-19T00:20:17.829Z,9.89
2023-05-19T00:21:17.979Z,9.86
2023-05-19T00:22:19.196Z,9.86
2023-05-19T00:23:19.365Z,9.85
2023-05-19T00:24:17.603Z,9.81
2023-05-19T00:25:18.773Z,9.83
2023-05-19T00:26:19.553Z,9.78
2023-05-19T00:27:19.198Z,9.78
2023-05-19T00:28:19.406Z,9.77
2023-05-19T00:29:18.685Z,9.78
2023-05-19T00:30:18.769Z,9.81
2023-05-19T00:31:18.061Z,9.86
2023-05-19T00:32:18.721Z,9.89
2023-05-19T00:33:18.393Z,9.88
2023-05-19T00:34:17.591Z,9.89
2023-05-19T00:35:18.724Z,9.83
2023-05-19T00:36:17.963Z,9.83
2023-05-19T00:37:18.164Z,9.80
2023-05-19T00:38:19.367Z,9.77
2023-05-19T00:39:17.536Z,9.77
2023-05-19T00:40:17.728Z,9.77
2023-05-19T00:41:17.922Z,9.77
2023-05-19T00:42:19.078Z,9.78
2023-05-19T00:43:19.298Z,9.77
2023-05-19T00:44:17.533Z,9.75
2023-05-19T00:45:17.705Z,9.74
2023-05-19T00:46:17.967Z,9.71
2023-05-19T00:47:18.134Z,9.68
2023-05-19T00:48:17.313Z,9.70
2023-05-19T00:49:17.508Z,9.67
2023-05-19T00:50:18.264Z,9.67
2023-05-19T00:51:17.907Z,9.65
2023-05-19T00:52:18.122Z,9.70
2023-05-19T00:53:17.299Z,9.70
2023-05-19T00:54:18.484Z,9.71
2023-05-19T00:55:17.740Z,9.71
2023-05-19T00:56:37.714Z,9.70
2023-05-19T00:57:18.168Z,9.75
2023-05-19T00:58:17.328Z,9.75
2023-05-19T00:59:17.509Z,9.74
2023-05-19T01:00:17.726Z,9.78
2023-05-19T01:01:18.016Z,9.77
2023-05-19T01:02:17.143Z,9.74
2023-05-19T01:03:17.397Z,9.78
2023-05-19T01:04:17.516Z,9.85
2023-05-19T01:05:17.733Z,9.88
2023-05-19T01:06:17.951Z,9.89
2023-05-19T01:07:17.101Z,9.85
2023-05-19T01:08:19.457Z,9.81
2023-05-19T01:09:17.538Z,9.78
2023-05-19T01:10:17.752Z,9.78
2023-05-19T01:11:17.959Z,9.75
2023-05-19T01:12:18.082Z,9.71
2023-05-19T01:13:17.355Z,9.70
2023-05-19T01:14:17.602Z,9.70
2023-05-19T01:15:17.781Z,9.67
2023-05-19T01:16:16.984Z,9.71
2023-05-19T01:17:17.169Z,9.68
2023-05-19T01:18:17.411Z,9.68
2023-05-19T01:19:17.677Z,9.63
2023-05-19T01:20:18.290Z,9.63
2023-05-19T01:21:17.893Z,9.63
2023-05-19T01:22:17.123Z,9.59
2023-05-19T01:23:17.372Z,9.56
2023-05-19T01:24:17.546Z,9.50
2023-05-19T01:25:17.746Z,9.49
2023-05-19T01:26:16.940Z,9.48
2023-05-19T01:27:18.100Z,9.48
2023-05-19T01:28:17.324Z,9.44
2023-05-19T01:29:17.546Z,9.44
2023-05-19T01:30:17.663Z,9.42
2023-05-19T01:31:16.941Z,9.44
2023-05-19T01:32:17.195Z,9.41
2023-05-19T01:33:17.338Z,9.42
2023-05-19T01:34:17.542Z,9.42
2023-05-19T01:35:16.785Z,9.40
2023-05-19T01:36:17.902Z,9.41
2023-05-19T01:37:17.864Z,9.38
2023-05-19T01:38:17.400Z,9.35
2023-05-19T01:39:17.616Z,9.31
2023-05-19T01:40:16.813Z,9.31
2023-05-19T01:41:17.037Z,9.27
2023-05-19T01:42:18.262Z,9.26
2023-05-19T01:43:18.112Z,9.20
2023-05-19T01:44:16.688Z,9.15
2023-05-19T01:45:16.923Z,9.10
2023-05-19T01:46:17.225Z,9.03
2023-05-19T01:47:17.314Z,8.93
2023-05-19T01:48:17.513Z,8.85
2023-05-19T01:49:16.736Z,8.85
2023-05-19T01:50:16.817Z,8.80
2023-05-19T01:51:17.947Z,8.73
2023-05-19T01:52:17.181Z,8.65
2023-05-19T01:53:17.382Z,8.63
2023-05-19T01:54:16.515Z,8.58
2023-05-19T01:55:16.784Z,8.55
2023-05-19T01:56:16.951Z,8.55
2023-05-19T01:57:17.130Z,8.54
2023-05-19T01:58:17.335Z,8.49
2023-05-19T01:59:16.535Z,8.46
2023-05-19T02:00:16.737Z,8.42
2023-05-19T02:01:16.735Z,8.37
2023-05-19T02:02:17.852Z,8.31
2023-05-19T02:03:18.105Z,8.27
2023-05-19T02:04:16.392Z,8.27
2023-05-19T02:05:16.563Z,8.27
2023-05-19T02:06:16.797Z,8.28
2023-05-19T02:07:17.018Z,8.32
2023-05-19T02:08:17.175Z,8.29
2023-05-19T02:09:17.481Z,8.32
2023-05-19T02:10:16.664Z,8.31
2023-05-19T02:11:17.873Z,8.36
2023-05-19T02:12:17.157Z,8.32
2023-05-19T02:13:16.337Z,8.40
2023-05-19T02:14:17.516Z,8.40
2023-05-19T02:15:16.763Z,8.42
2023-05-19T02:16:17.057Z,8.43
2023-05-19T02:17:17.131Z,8.46
2023-05-19T02:18:16.498Z,8.54
2023-05-19T02:19:16.652Z,8.60
2023-05-19T02:20:17.790Z,8.58
2023-05-19T02:21:18.009Z,8.57
2023-05-19T02:22:17.232Z,8.63
2023-05-19T02:23:16.451Z,8.64
2023-05-19T02:24:16.738Z,8.64
2023-05-19T02:25:16.893Z,8.64
2023-05-19T02:26:16.059Z,8.63
2023-05-19T02:27:16.294Z,8.61
2023-05-19T02:28:16.529Z,8.61
2023-05-19T02:29:16.783Z,8.63
2023-05-19T02:30:15.960Z,8.61
2023-05-19T02:31:20.193Z,8.65
2023-05-19T02:32:16.600Z,8.68
2023-05-19T02:33:16.638Z,8.68
2023-05-19T02:34:16.858Z,8.67
2023-05-19T02:35:16.107Z,8.68
2023-05-19T02:36:16.264Z,8.64
2023-05-19T02:37:16.504Z,8.60
2023-05-19T02:38:16.738Z,8.60
2023-05-19T02:39:15.895Z,8.57
2023-05-19T02:40:16.108Z,8.54
2023-05-19T02:41:16.423Z,8.50
2023-05-19T02:42:16.520Z,8.49
2023-05-19T02:43:16.750Z,8.47
2023-05-19T02:44:15.908Z,8.43
2023-05-19T02:45:16.141Z,8.40
2023-05-19T02:46:16.374Z,8.36
2023-05-19T02:47:16.643Z,8.39
2023-05-19T02:48:15.772Z,8.40
2023-05-19T02:49:15.967Z,8.37
2023-05-19T02:50:17.144Z,8.39
2023-05-19T02:51:17.383Z,8.42
2023-05-19T02:52:16.583Z,8.40
2023-05-19T02:53:15.854Z,8.42
2023-05-19T02:54:17.058Z,8.40
2023-05-19T02:55:16.281Z,8.43
2023-05-19T02:56:16.497Z,8.45
2023-05-19T02:57:15.664Z,8.46
2023-05-19T02:58:15.883Z,8.49
2023-05-19T02:59:16.142Z,8.46
2023-05-19T03:00:16.316Z,8.45
2023-05-19T03:01:15.495Z,8.43
2023-05-19T03:02:15.745Z,8.42
2023-05-19T03:03:16.111Z,8.36
2023-05-19T03:04:16.257Z,8.36
2023-05-19T03:05:16.372Z,8.31
2023-05-19T03:06:15.554Z,8.34
2023-05-19T03:07:15.771Z,8.34
2023-05-19T03:08:15.979Z,8.37
2023-05-19T03:09:16.195Z,8.31
2023-05-19T03:10:15.425Z,8.27
2023-05-19T03:11:16.559Z,8.20
2023-05-19T03:12:16.775Z,8.14
2023-05-19T03:13:16.054Z,8.06
2023-05-19T03:14:17.224Z,8.00
2023-05-19T03:15:15.474Z,7.92
2023-05-19T03:16:15.807Z,7.86
2023-05-19T03:17:15.939Z,7.84
2023-05-19T03:18:16.193Z,7.81
2023-05-19T03:19:15.357Z,7.82
2023-05-19T03:20:15.570Z,7.84
2023-05-19T03:21:15.858Z,7.81
2023-05-19T03:22:15.977Z,7.82
2023-05-19T03:23:16.204Z,7.81
2023-05-19T03:24:15.378Z,7.77
2023-05-19T03:25:15.599Z,7.74
2023-05-19T03:26:15.811Z,7.69
2023-05-19T03:27:16.134Z,7.66
2023-05-19T03:28:15.225Z,7.70
2023-05-19T03:29:16.440Z,7.76
2023-05-19T03:30:16.658Z,7.82
2023-05-19T03:31:16.878Z,7.91
2023-05-19T03:32:15.124Z,7.95
2023-05-19T03:33:15.648Z,8.00
2023-05-19T03:34:15.568Z,8.02
2023-05-19T03:35:15.808Z,8.00
2023-05-19T03:36:16.033Z,7.96
2023-05-19T03:37:16.202Z,7.95
2023-05-19T03:38:15.469Z,7.96
2023-05-19T03:39:15.729Z,7.99
2023-05-19T03:40:15.928Z,8.03
2023-05-19T03:41:15.092Z,8.00
2023-05-19T03:42:15.341Z,8.02
2023-05-19T03:43:15.604Z,8.04
2023-05-19T03:44:15.859Z,8.04
2023-05-19T03:45:14.968Z,8.03
2023-05-19T03:46:15.252Z,8.03
2023-05-19T03:47:15.405Z,8.02
2023-05-19T03:48:15.649Z,8.02
2023-05-19T03:49:18.020Z,8.02
2023-05-19T03:50:15.114Z,8.00
2023-05-19T03:51:16.369Z,8.00
2023-05-19T03:52:15.527Z,8.03
2023-05-19T03:53:15.784Z,8.04
2023-05-19T03:54:14.958Z,8.04
2023-05-19T03:55:15.317Z,8.00
2023-05-19T03:56:15.437Z,7.99
2023-05-19T03:57:15.696Z,7.95
2023-05-19T03:58:14.872Z,7.91
2023-05-19T03:59:16.076Z,7.85
2023-05-19T04:00:15.396Z,7.74
2023-05-19T04:01:15.590Z,7.67
2023-05-19T04:02:14.754Z,7.60
2023-05-19T04:03:15.214Z,7.62
2023-05-19T04:04:15.276Z,7.63
2023-05-19T04:05:15.463Z,7.66
2023-05-19T04:06:14.657Z,7.66
2023-05-19T04:07:14.931Z,7.67
2023-05-19T04:08:16.073Z,7.70
2023-05-19T04:09:15.337Z,7.69
2023-05-19T04:10:15.580Z,7.70
2023-05-19T04:11:15.960Z,7.73
2023-05-19T04:12:17.091Z,7.73
2023-05-19T04:13:15.225Z,7.74
2023-05-19T04:14:15.511Z,7.74
2023-05-19T04:15:14.720Z,7.76
2023-05-19T04:16:14.960Z,7.79
2023-05-19T04:17:15.319Z,7.76
2023-05-19T04:18:15.402Z,7.74
2023-05-19T04:19:14.572Z,7.73
2023-05-19T04:20:15.728Z,7.74
2023-05-19T04:21:15.002Z,7.73
2023-05-19T04:22:15.262Z,7.74
2023-05-19T04:23:15.478Z,7.77
2023-05-19T04:24:14.652Z,7.77
2023-05-19T04:25:14.867Z,7.79
2023-05-19T04:26:16.075Z,7.79
2023-05-19T04:27:15.337Z,7.85
2023-05-19T04:28:14.589Z,7.86
2023-05-19T04:29:15.720Z,7.88
2023-05-19T04:30:16.708Z,7.88
2023-05-19T04:31:15.242Z,7.89
2023-05-19T04:32:14.383Z,7.89
2023-05-19T04:33:14.621Z,7.94
2023-05-19T04:34:14.829Z,7.95
2023-05-19T04:35:15.072Z,7.96
2023-05-19T04:36:14.241Z,8.03
2023-05-19T04:37:14.466Z,8.07
2023-05-19T04:38:14.676Z,8.10
2023-05-19T04:39:14.984Z,8.09
2023-05-19T04:40:15.174Z,8.09
2023-05-19T04:41:14.357Z,8.07
2023-05-19T04:42:14.587Z,8.07
2023-05-19T04:43:14.864Z,8.09
2023-05-19T04:44:15.095Z,8.07
2023-05-19T04:45:17.407Z,8.07
2023-05-19T04:46:14.556Z,8.09
2023-05-19T04:47:14.726Z,8.09
2023-05-19T04:48:14.956Z,8.10
2023-05-19T04:49:14.126Z,8.12
2023-05-19T04:50:14.424Z,8.17
2023-05-19T04:51:14.648Z,8.18
2023-05-19T04:52:14.781Z,8.21
2023-05-19T04:53:14.049Z,8.20
2023-05-19T04:54:14.208Z,8.22
2023-05-19T04:55:14.429Z,8.24
2023-05-19T04:56:14.622Z,8.28
2023-05-19T04:57:14.809Z,8.29
2023-05-19T04:58:13.991Z,8.32
2023-05-19T04:59:15.135Z,8.31
2023-05-19T05:00:14.435Z,8.32
2023-05-19T05:01:14.634Z,8.34
2023-05-19T05:02:14.887Z,8.36
2023-05-19T05:03:15.169Z,8.37
2023-05-19T05:04:19.375Z,8.40
2023-05-19T05:05:14.355Z,8.43
2023-05-19T05:06:14.545Z,8.42
2023-05-19T05:07:14.798Z,8.46
2023-05-19T05:08:13.924Z,8.46
2023-05-19T05:09:15.062Z,8.47
2023-05-19T05:10:15.267Z,8.50
2023-05-19T05:11:14.517Z,8.54
2023-05-19T05:12:14.679Z,8.54
2023-05-19T05:13:13.953Z,8.57
2023-05-19T05:14:14.058Z,8.57
2023-05-19T05:15:14.237Z,8.57
2023-05-19T05:16:14.514Z,8.58
2023-05-19T05:17:13.623Z,8.61
2023-05-19T05:18:13.863Z,8.63
2023-05-19T05:19:14.151Z,8.68
2023-05-19T05:20:14.278Z,8.71
2023-05-19T05:21:14.470Z,8.75
2023-05-19T05:22:16.746Z,8.78
2023-05-19T05:23:14.834Z,8.83
2023-05-19T05:24:14.038Z,8.85
2023-05-19T05:25:14.726Z,8.91
2023-05-19T05:26:14.453Z,8.96
2023-05-19T05:27:14.672Z,9.01
2023-05-19T05:28:16.863Z,9.04
2023-05-19T05:29:14.057Z,9.06
2023-05-19T05:30:14.246Z,9.15
2023-05-19T05:31:14.466Z,9.16
2023-05-19T05:32:13.694Z,9.17
2023-05-19T05:33:13.992Z,9.22
2023-05-19T05:34:14.052Z,9.23
2023-05-19T05:35:14.285Z,9.24
2023-05-19T05:36:14.475Z,9.24
2023-05-19T05:37:15.314Z,9.26
2023-05-19T05:38:14.852Z,9.26
2023-05-19T05:39:14.029Z,9.30
2023-05-19T05:40:14.242Z,9.31
2023-05-19T05:41:13.378Z,9.34
2023-05-19T05:42:13.550Z,9.34
2023-05-19T05:43:14.771Z,9.38
2023-05-19T05:44:13.937Z,9.38
2023-05-19T05:45:14.155Z,9.41
2023-05-19T05:46:13.367Z,9.48
2023-05-19T05:47:14.644Z,9.52
2023-05-19T05:48:16.032Z,9.53
2023-05-19T05:49:13.987Z,9.52
2023-05-19T05:50:14.188Z,9.52
2023-05-19T05:51:13.352Z,9.55
2023-05-19T05:52:14.537Z,9.56
2023-05-19T05:53:13.778Z,9.60
2023-05-19T05:54:13.911Z,9.65
2023-05-19T05:55:16.194Z,9.73
2023-05-19T05:56:14.257Z,9.75
2023-05-19T05:57:14.523Z,9.78
2023-05-19T05:58:13.697Z,9.78
2023-05-19T05:59:15.071Z,9.80
2023-05-19T06:00:13.094Z,9.86
2023-05-19T06:01:14.245Z,9.89
2023-05-19T06:02:13.659Z,9.92
2023-05-19T06:03:13.897Z,9.96
2023-05-19T06:04:13.928Z,9.98
2023-05-19T06:05:13.149Z,9.98
2023-05-19T06:06:13.258Z,9.96
2023-05-19T06:07:13.482Z,9.98
2023-05-19T06:08:13.718Z,9.98
2023-05-19T06:09:13.936Z,10.01
2023-05-19T06:10:13.176Z,10.02
2023-05-19T06:11:13.331Z,10.09
2023-05-19T06:12:13.529Z,10.11
2023-05-19T06:13:13.700Z,10.16
2023-05-19T06:14:13.881Z,10.24
2023-05-19T06:15:16.314Z,10.28
2023-05-19T06:16:13.249Z,10.31
2023-05-19T06:17:13.419Z,10.35
2023-05-19T06:18:17.689Z,10.39
2023-05-19T06:19:13.981Z,10.43
2023-05-19T06:20:14.004Z,10.47
2023-05-19T06:21:13.241Z,10.47
2023-05-19T06:22:13.372Z,10.46
2023-05-19T06:23:14.533Z,10.52
2023-05-19T06:24:14.773Z,10.52
2023-05-19T06:25:12.953Z,10.52
2023-05-19T06:26:13.159Z,10.49
2023-05-19T06:27:13.430Z,10.47
2023-05-19T06:28:14.497Z,10.47
2023-05-19T06:29:12.721Z,10.47
2023-05-19T06:30:13.954Z,10.46
2023-05-19T06:31:13.176Z,10.47
2023-05-19T06:32:14.293Z,10.51
2023-05-19T06:33:13.609Z,10.55
2023-05-19T06:34:12.781Z,10.58
2023-05-19T06:35:12.861Z,10.58
2023-05-19T06:36:16.122Z,10.63
2023-05-19T06:37:14.214Z,10.68
2023-05-19T06:38:14.410Z,10.76
2023-05-19T06:39:12.804Z,10.84
2023-05-19T06:40:12.803Z,10.88
2023-05-19T06:41:13.006Z,10.94
2023-05-19T06:42:13.199Z,10.95
2023-05-19T06:43:13.401Z,11.03
2023-05-19T06:44:12.541Z,11.08
2023-05-19T06:45:12.771Z,11.11
2023-05-19T06:46:12.959Z,11.09
2023-05-19T06:47:13.333Z,11.13
2023-05-19T06:48:13.348Z,11.12
2023-05-19T06:49:12.487Z,11.16
2023-05-19T06:50:12.858Z,11.20
2023-05-19T06:51:12.945Z,11.28
2023-05-19T06:52:13.087Z,11.31
2023-05-19T06:53:13.232Z,11.36
2023-05-19T06:54:12.395Z,11.39
2023-05-19T06:55:12.607Z,11.42
2023-05-19T06:56:12.833Z,11.44
2023-05-19T06:57:13.474Z,11.45
2023-05-19T06:58:13.193Z,11.49
2023-05-19T06:59:12.455Z,11.51
2023-05-19T07:00:13.986Z,11.54
2023-05-19T07:01:12.785Z,11.59
2023-05-19T07:02:13.075Z,11.63
2023-05-19T07:03:13.278Z,11.67
2023-05-19T07:04:12.357Z,11.70
2023-05-19T07:05:12.441Z,11.75
2023-05-19T07:06:12.632Z,11.77
2023-05-19T07:07:12.913Z,11.81
2023-05-19T07:08:16.235Z,11.87
2023-05-19T07:09:12.272Z,11.88
2023-05-19T07:10:17.498Z,11.96
2023-05-19T07:11:12.595Z,12.03
2023-05-19T07:12:12.755Z,12.07
2023-05-19T07:13:12.929Z,12.12
2023-05-19T07:14:13.164Z,12.15
2023-05-19T07:15:12.278Z,12.19
2023-05-19T07:16:12.447Z,12.22
2023-05-19T07:17:12.592Z,12.30
2023-05-19T07:18:13.793Z,12.30
2023-05-19T07:19:13.984Z,12.33
2023-05-19T07:20:12.167Z,12.34
2023-05-19T07:21:13.334Z,12.40
2023-05-19T07:22:13.437Z,12.46
2023-05-19T07:23:12.736Z,12.51
2023-05-19T07:24:13.795Z,12.54
2023-05-19T07:25:12.030Z,12.58
2023-05-19T07:26:12.197Z,12.59
2023-05-19T07:27:12.305Z,12.62
2023-05-19T07:28:16.717Z,12.63
2023-05-19T07:29:12.693Z,12.66
2023-05-19T07:30:12.816Z,12.71
2023-05-19T07:31:11.970Z,12.74
2023-05-19T07:32:12.498Z,12.79
2023-05-19T07:33:12.380Z,12.84
2023-05-19T07:34:13.599Z,12.88
2023-05-19T07:35:13.899Z,12.95
2023-05-19T07:36:12.009Z,12.99
2023-05-19T07:37:12.050Z,13.03
2023-05-19T07:38:12.226Z,13.04
2023-05-19T07:39:13.348Z,13.09
2023-05-19T07:40:13.510Z,13.06
2023-05-19T07:41:12.743Z,13.07
2023-05-19T07:42:11.860Z,13.09
2023-05-19T07:43:12.032Z,13.12
2023-05-19T07:44:12.245Z,13.16
2023-05-19T07:45:12.361Z,13.19
2023-05-19T07:46:12.699Z,13.22
2023-05-19T07:47:11.990Z,13.24
2023-05-19T07:48:11.941Z,13.25
2023-05-19T07:49:12.030Z,13.28
2023-05-19T07:50:12.277Z,13.32
2023-05-19T07:51:13.370Z,13.36
2023-05-19T07:52:12.550Z,13.41
2023-05-19T07:53:14.129Z,13.43
2023-05-19T07:54:11.834Z,13.47
2023-05-19T07:55:11.990Z,13.51
2023-05-19T07:56:12.208Z,13.53
2023-05-19T07:57:13.311Z,13.59
2023-05-19T07:58:13.435Z,13.63
2023-05-19T07:59:12.590Z,13.66
2023-05-19T08:00:12.808Z,13.69
2023-05-19T08:01:11.980Z,13.68
2023-05-19T08:02:13.899Z,13.69
2023-05-19T08:03:12.400Z,13.71
2023-05-19T08:04:12.921Z,13.76
2023-05-19T08:05:11.583Z,13.73
2023-05-19T08:06:11.750Z,13.80
2023-05-19T08:07:11.926Z,13.84
2023-05-19T08:08:12.381Z,13.96
2023-05-19T08:09:12.208Z,14.04
2023-05-19T08:10:11.343Z,14.12
2023-05-19T08:11:11.496Z,14.19
2023-05-19T08:12:11.704Z,14.27
2023-05-19T08:13:11.845Z,14.35
2023-05-19T08:14:12.229Z,14.36
2023-05-19T08:15:12.153Z,14.44
2023-05-19T08:16:12.291Z,14.49
2023-05-19T08:17:11.416Z,14.56
2023-05-19T08:18:11.548Z,14.63
2023-05-19T08:19:11.681Z,14.64
2023-05-19T08:20:11.886Z,14.69
2023-05-19T08:21:11.944Z,14.71
2023-05-19T08:22:12.102Z,14.64
2023-05-19T08:23:11.265Z,14.66
2023-05-19T08:24:11.400Z,14.64
2023-05-19T08:25:15.736Z,14.64
2023-05-19T08:26:11.742Z,14.60
2023-05-19T08:27:11.875Z,14.56
2023-05-19T08:28:12.068Z,14.54
2023-05-19T08:29:11.150Z,14.60
2023-05-19T08:30:11.280Z,14.64
2023-05-19T08:31:11.974Z,14.71
2023-05-19T08:32:13.215Z,14.74
2023-05-19T08:33:11.892Z,14.78
2023-05-19T08:34:11.889Z,14.82
2023-05-19T08:35:15.500Z,14.86
2023-05-19T08:36:11.162Z,15.00
2023-05-19T08:37:11.348Z,15.12
2023-05-19T08:38:11.473Z,15.25
2023-05-19T08:39:11.604Z,15.34
2023-05-19T08:40:11.803Z,15.41
2023-05-19T08:41:11.933Z,15.49
2023-05-19T08:42:11.047Z,15.53
2023-05-19T08:43:11.212Z,15.56
2023-05-19T08:44:11.350Z,15.60
2023-05-19T08:45:11.466Z,15.58
2023-05-19T08:46:11.615Z,15.59
2023-05-19T08:47:12.776Z,15.58
2023-05-19T08:48:11.813Z,15.62
2023-05-19T08:49:11.039Z,15.66
2023-05-19T08:50:11.169Z,15.71
2023-05-19T08:51:11.286Z,15.74
2023-05-19T08:52:12.398Z,15.76
2023-05-19T08:53:24.681Z,15.78
2023-05-19T08:54:12.691Z,15.80
2023-05-19T08:55:10.750Z,15.78
2023-05-19T08:56:11.017Z,15.78
2023-05-19T08:57:11.093Z,15.84
2023-05-19T08:58:16.385Z,15.85
2023-05-19T08:59:11.342Z,15.93
2023-05-19T09:00:12.063Z,16.01
2023-05-19T09:01:15.803Z,16.07
2023-05-19T09:02:10.690Z,16.14
2023-05-19T09:03:22.796Z,16.18
2023-05-19T09:04:12.001Z,16.25
2023-05-19T09:05:11.243Z,16.08
2023-05-19T09:06:14.397Z,16.06
2023-05-19T09:07:12.355Z,16.03
2023-05-19T09:08:12.509Z,16.01
2023-05-19T09:09:10.677Z,15.96
2023-05-19T09:10:11.747Z,15.93
2023-05-19T09:11:11.903Z,15.89
2023-05-19T09:12:11.115Z,15.88
2023-05-19T09:13:11.203Z,15.89
2023-05-19T09:14:17.467Z,15.85
2023-05-19T09:15:11.474Z,15.84
2023-05-19T09:16:10.616Z,15.84
2023-05-19T09:17:10.775Z,15.88
2023-05-19T09:18:10.990Z,15.91
2023-05-19T09:19:12.025Z,15.91
2023-05-19T09:20:11.164Z,15.93
2023-05-19T09:21:11.336Z,16.01
2023-05-19T09:22:11.427Z,16.04
2023-05-19T09:23:11.481Z,16.08
2023-05-19T09:24:10.722Z,16.10
2023-05-19T09:25:11.765Z,16.08
2023-05-19T09:26:17.088Z,16.14
2023-05-19T09:27:12.049Z,16.14
2023-05-19T09:28:15.364Z,16.14
2023-05-19T09:29:10.334Z,16.25
2023-05-19T09:30:10.527Z,16.30
2023-05-19T09:31:11.561Z,16.42
2023-05-19T09:32:11.766Z,16.55
2023-05-19T09:33:10.931Z,16.69
2023-05-19T09:34:12.027Z,16.82
2023-05-19T09:35:11.139Z,16.90
2023-05-19T09:36:17.496Z,16.96
2023-05-19T09:37:10.373Z,16.99
2023-05-19T09:38:10.515Z,16.98
2023-05-19T09:39:10.652Z,17.06
2023-05-19T09:40:13.064Z,17.03
2023-05-19T09:41:10.958Z,17.05
2023-05-19T09:42:11.051Z,17.05
2023-05-19T09:43:10.162Z,17.14
2023-05-19T09:44:10.274Z,17.21
2023-05-19T09:45:11.383Z,17.30
2023-05-19T09:46:12.130Z,17.30
2023-05-19T09:47:10.713Z,17.25
2023-05-19T09:48:11.746Z,17.17
2023-05-19T09:49:10.950Z,17.22
2023-05-19T09:50:10.033Z,17.33
2023-05-19T09:51:11.176Z,17.38
2023-05-19T09:52:12.680Z,17.36
2023-05-19T09:53:10.465Z,17.39
2023-05-19T09:54:11.507Z,17.46
2023-05-19T09:55:11.674Z,17.58
2023-05-19T09:56:10.771Z,17.70
2023-05-19T09:57:10.874Z,17.74
2023-05-19T09:58:12.669Z,17.81
2023-05-19T09:59:34.971Z,17.99
2023-05-19T10:00:17.800Z,18.02
2023-05-19T10:01:14.511Z,18.10
2023-05-19T10:02:12.531Z,18.21
2023-05-19T10:03:10.665Z,18.26
2023-05-19T10:04:12.855Z,18.25
2023-05-19T10:05:16.067Z,18.25
2023-05-19T10:06:18.156Z,18.28
2023-05-19T10:07:10.067Z,18.34
2023-05-19T10:08:10.189Z,18.41
2023-05-19T10:09:10.324Z,18.46
2023-05-19T10:10:11.487Z,18.53
2023-05-19T10:11:10.620Z,18.57
2023-05-19T10:12:11.626Z,18.59
2023-05-19T10:13:10.705Z,18.60
2023-05-19T10:14:09.850Z,18.59
2023-05-19T10:15:12.030Z,18.56
2023-05-19T10:16:11.226Z,18.57
2023-05-19T10:17:10.179Z,18.64
2023-05-19T10:18:11.294Z,18.71
2023-05-19T10:19:10.457Z,18.82
2023-05-19T10:20:10.506Z,18.84
2023-05-19T10:21:11.541Z,18.87
2023-05-19T10:22:09.767Z,18.94
2023-05-19T10:23:09.756Z,18.86
2023-05-19T10:24:11.487Z,18.65
2023-05-19T10:25:10.913Z,18.56
2023-05-19T10:26:10.078Z,18.57
2023-05-19T10:27:10.206Z,18.50
2023-05-19T10:28:10.298Z,18.47
2023-05-19T10:29:38.105Z,18.35
2023-05-19T10:30:11.556Z,18.35
2023-05-19T10:31:09.569Z,18.34
2023-05-19T10:32:09.748Z,18.32
2023-05-19T10:33:09.870Z,18.34
2023-05-19T10:34:10.916Z,18.35
2023-05-19T10:35:09.990Z,18.35
2023-05-19T10:36:10.108Z,18.44
2023-05-19T10:37:10.193Z,18.44
2023-05-19T10:38:10.398Z,18.47
2023-05-19T10:39:10.445Z,18.47
2023-05-19T10:40:10.482Z,18.47
2023-05-19T10:41:10.608Z,18.46
2023-05-19T10:42:09.752Z,18.49
2023-05-19T10:43:10.944Z,18.60
2023-05-19T10:44:12.054Z,18.75
2023-05-19T10:45:10.091Z,18.91
2023-05-19T10:46:10.202Z,19.12
2023-05-19T10:47:09.292Z,19.28
2023-05-19T10:48:10.492Z,19.40
2023-05-19T10:49:10.522Z,19.52
2023-05-19T10:50:10.555Z,19.60
2023-05-19T10:51:11.161Z,19.64
2023-05-19T10:52:12.828Z,19.64
2023-05-19T10:53:10.882Z,19.55
2023-05-19T10:54:12.172Z,19.40
2023-05-19T10:55:10.261Z,19.25
2023-05-19T10:56:09.267Z,19.10
2023-05-19T10:57:10.429Z,19.16
2023-05-19T10:58:09.473Z,19.23
2023-05-19T10:59:10.517Z,19.31
2023-05-19T11:00:11.886Z,19.45
2023-05-19T11:01:10.746Z,19.60
2023-05-19T11:02:09.957Z,19.62
2023-05-19T11:03:10.063Z,19.61
2023-05-19T11:04:09.152Z,19.68
2023-05-19T11:05:12.189Z,19.64
2023-05-19T11:06:09.325Z,19.64
2023-05-19T11:07:09.409Z,19.65
2023-05-19T11:08:10.466Z,19.79
2023-05-19T11:09:09.628Z,19.92
2023-05-19T11:10:09.738Z,20.07
2023-05-19T11:11:10.941Z,20.16
2023-05-19T11:12:08.910Z,20.26
2023-05-19T11:13:12.054Z,20.35
2023-05-19T11:14:09.112Z,20.31
2023-05-19T11:15:10.169Z,20.33
2023-05-19T11:16:10.322Z,20.41
2023-05-19T11:17:10.570Z,20.51
2023-05-19T11:18:09.571Z,20.56
2023-05-19T11:19:10.725Z,20.68
2023-05-19T11:20:09.752Z,20.69
2023-05-19T11:21:12.870Z,20.73
2023-05-19T11:22:09.829Z,20.75
2023-05-19T11:23:09.152Z,20.75
2023-05-19T11:24:12.063Z,20.73
2023-05-19T11:25:10.135Z,20.79
2023-05-19T11:26:13.367Z,20.88
2023-05-19T11:27:11.408Z,20.93
2023-05-19T11:28:11.559Z,21.05
2023-05-19T11:29:10.468Z,21.08
2023-05-19T11:30:10.573Z,21.08
2023-05-19T11:31:09.637Z,21.08
2023-05-19T11:32:20.276Z,21.06
2023-05-19T11:33:09.842Z,21.03
2023-05-19T11:34:28.957Z,21.03
2023-05-19T11:35:09.028Z,21.06
2023-05-19T11:36:33.029Z,21.03
2023-05-19T11:37:09.253Z,20.94
2023-05-19T11:38:10.313Z,20.85
2023-05-19T11:39:40.589Z,20.81
2023-05-19T11:40:09.561Z,20.85
2023-05-19T11:41:08.554Z,20.90
2023-05-19T11:42:15.901Z,20.97
2023-05-19T11:43:17.035Z,21.01
2023-05-19T11:44:50.344Z,21.09
2023-05-19T11:45:08.961Z,21.11
2023-05-19T11:46:09.068Z,21.21
2023-05-19T11:47:28.843Z,21.34
2023-05-19T11:48:09.271Z,21.42
2023-05-19T11:49:32.156Z,21.53
2023-05-19T11:50:08.449Z,21.55
2023-05-19T11:51:08.509Z,21.56
2023-05-19T11:52:09.541Z,21.49
2023-05-19T11:53:11.742Z,21.49
2023-05-19T11:54:12.881Z,21.55
2023-05-19T11:55:14.172Z,21.63
2023-05-19T11:56:16.302Z,21.67
2023-05-19T11:57:10.101Z,21.74
2023-05-19T11:58:09.284Z,21.71
2023-05-19T11:59:21.797Z,21.71
2023-05-19T12:00:08.485Z,21.66
2023-05-19T12:01:28.314Z,21.74
2023-05-19T12:02:30.419Z,21.83
2023-05-19T12:03:09.136Z,21.93
2023-05-19T12:05:09.045Z,22.17
2023-05-19T12:05:15.386Z,22.19
2023-05-19T12:06:15.450Z,22.24
2023-05-19T12:07:42.482Z,22.24
2023-05-19T12:08:15.596Z,22.29
2023-05-19T12:09:17.818Z,22.36
2023-05-19T12:10:21.042Z,22.42
2023-05-19T12:11:23.243Z,22.48
2023-05-19T12:12:15.097Z,22.59
2023-05-19T12:13:28.811Z,22.60
2023-05-19T12:14:15.345Z,22.59
2023-05-19T12:16:35.395Z,22.72
2023-05-19T12:16:41.483Z,22.74
2023-05-19T12:17:41.588Z,22.74
2023-05-19T12:19:41.778Z,22.64
2023-05-19T12:20:07.602Z,22.64
2023-05-19T12:21:07.754Z,22.66
2023-05-19T12:22:08.812Z,22.52
2023-05-19T12:23:07.914Z,22.60
2023-05-19T12:24:07.992Z,22.64
2023-05-19T12:25:08.172Z,22.67
2023-05-19T12:26:08.202Z,22.79
2023-05-19T12:27:08.405Z,22.86
2023-05-19T12:28:07.395Z,22.97
2023-05-19T12:29:07.471Z,23.03
2023-05-19T12:30:07.565Z,23.04
2023-05-19T12:31:07.704Z,23.03
2023-05-19T12:32:07.797Z,23.01
2023-05-19T12:33:07.873Z,22.97
2023-05-19T12:34:07.928Z,22.97
2023-05-19T12:35:08.026Z,22.99
2023-05-19T12:36:08.104Z,22.89
2023-05-19T12:37:08.158Z,22.81
2023-05-19T12:37:47.518Z,22.84
2023-05-19T12:38:47.615Z,22.94
2023-05-19T12:39:47.680Z,22.94
2023-05-19T12:40:47.768Z,22.93
2023-05-19T12:41:47.949Z,22.97
2023-05-19T12:42:48.972Z,23.01
2023-05-19T12:43:49.000Z,23.07
2023-05-19T12:45:03.243Z,23.04
2023-05-19T12:45:47.182Z,23.09
2023-05-19T12:46:47.260Z,23.15
2023-05-19T12:47:47.532Z,23.22
2023-05-19T12:48:47.450Z,23.31
2023-05-19T12:49:48.489Z,23.41
2023-05-19T12:50:47.648Z,23.44
2023-05-19T12:51:47.738Z,23.50
2023-05-19T12:52:47.812Z,23.50
2023-05-19T12:53:48.912Z,23.50
2023-05-19T12:54:48.977Z,23.34
2023-05-19T12:55:48.025Z,23.26
2023-05-19T12:56:47.033Z,23.35
2023-05-19T12:57:48.596Z,23.41
2023-05-19T12:58:47.282Z,23.45
2023-05-19T12:59:47.292Z,23.47
2023-05-19T13:00:47.731Z,23.49
2023-05-19T13:01:47.470Z,23.47
2023-05-19T13:02:47.532Z,23.42
2023-05-19T13:03:51.443Z,23.45
2023-05-19T13:04:47.649Z,23.53